createdAt,value
2023-04-13T08:33:22.790Z,10.84
2023-04-13T08:35:58.184Z,10.80
2023-04-13T08:38:28.579Z,11.03
2023-04-13T08:44:13.161Z,10.73
2023-04-13T08:53:30.124Z,11.97
2023-04-13T08:55:59.685Z,12.14
2023-04-13T08:58:29.285Z,11.91
2023-04-13T09:00:58.842Z,12.08
2023-04-13T09:03:28.854Z,12.10
2023-04-13T09:06:01.863Z,12.05
2023-04-13T09:08:36.142Z,11.99
2023-04-13T09:11:05.676Z,11.94
2023-04-13T09:13:35.209Z,12.02
2023-04-13T09:16:05.525Z,12.30
2023-04-13T09:18:35.050Z,12.53
2023-04-13T09:21:04.548Z,12.75
2023-04-13T09:23:36.681Z,13.02
2023-04-13T09:26:09.945Z,13.05
2023-04-13T09:28:49.751Z,12.68
2023-04-13T09:31:20.185Z,12.51
2023-04-13T09:33:50.325Z,12.44
2023-04-13T09:36:20.759Z,12.21
2023-04-13T09:38:57.639Z,12.05
2023-04-13T09:41:34.407Z,12.03
2023-04-13T09:44:04.014Z,12.00
2023-04-13T09:46:33.772Z,12.07
2023-04-13T09:49:06.974Z,12.08
2023-04-13T09:51:39.802Z,12.43
2023-04-13T09:54:11.903Z,13.86
2023-04-13T09:56:48.364Z,14.75
2023-04-13T09:59:18.062Z,15.59
2023-04-13T10:01:47.695Z,15.64
2023-04-13T10:04:17.802Z,15.58
2023-04-13T10:06:48.442Z,15.18
2023-04-13T10:09:21.361Z,14.98
2023-04-13T10:11:53.554Z,14.29
2023-04-13T10:14:26.038Z,13.55
2023-04-13T10:17:05.753Z,12.97
2023-04-13T10:19:36.579Z,12.67
2023-04-13T10:22:08.832Z,12.65
2023-04-13T10:24:41.647Z,13.12
2023-04-13T10:27:16.530Z,12.84
2023-04-13T10:29:46.542Z,12.49
2023-04-13T10:32:23.568Z,13.13
2023-04-13T10:34:53.395Z,13.90
2023-04-13T10:37:23.594Z,14.60
2023-04-13T10:40:06.501Z,15.22
2023-04-13T10:45:21.577Z,15.37
2023-04-13T10:47:51.216Z,15.57
2023-04-13T10:50:22.651Z,15.39
2023-04-13T10:52:59.883Z,15.51
2023-04-13T10:55:32.417Z,15.59
2023-04-13T10:58:02.870Z,15.49
2023-04-13T11:00:45.586Z,15.20
2023-04-13T11:03:17.911Z,15.18
2023-04-13T11:05:47.789Z,15.59
2023-04-13T11:08:21.961Z,15.85
2023-04-13T11:10:58.020Z,16.51
2023-04-13T11:13:29.854Z,16.88
2023-04-13T11:16:05.778Z,16.52
2023-04-13T11:18:35.359Z,16.25
2023-04-13T11:21:08.497Z,16.68
2023-04-13T11:23:38.568Z,17.20
2023-04-13T11:26:11.233Z,17.02
2023-04-13T11:28:42.707Z,16.77
2023-04-13T11:31:12.904Z,16.84
2023-04-13T11:33:44.632Z,17.25
2023-04-13T11:36:14.541Z,17.61
2023-04-13T11:38:45.252Z,17.14
2023-04-13T11:41:17.838Z,17.14
2023-04-13T11:43:48.851Z,17.64
2023-04-13T11:46:25.674Z,17.72
2023-04-13T11:48:55.849Z,17.77
2023-04-13T11:51:25.722Z,17.78
2023-04-13T11:53:55.282Z,17.59
2023-04-13T11:56:27.383Z,17.05
2023-04-13T11:58:57.317Z,16.24
2023-04-13T12:01:32.226Z,15.43
2023-04-13T12:06:40.494Z,15.28
2023-04-13T12:09:13.282Z,15.07
2023-04-13T12:11:51.556Z,15.04
2023-04-13T12:17:04.478Z,15.46
2023-04-13T12:19:43.699Z,15.79
2023-04-13T12:22:14.957Z,16.00
2023-04-13T12:24:45.609Z,16.30
2023-04-13T12:27:19.352Z,16.81
2023-04-13T12:29:49.157Z,17.05
2023-04-13T12:32:18.742Z,16.55
2023-04-13T12:34:49.025Z,15.99
2023-04-13T12:37:18.575Z,15.72
2023-04-13T12:39:48.102Z,15.50
2023-04-13T12:42:20.189Z,15.15
2023-04-13T12:44:49.731Z,15.09
2023-04-13T12:47:19.454Z,15.13
2023-04-13T12:49:49.130Z,15.19
2023-04-13T12:52:18.884Z,15.23
2023-04-13T12:54:48.399Z,15.37
2023-04-13T12:57:20.480Z,15.16
2023-04-13T12:59:50.028Z,14.17
2023-04-13T13:02:20.019Z,13.88
2023-04-13T13:04:50.490Z,13.71
2023-04-13T13:07:21.746Z,13.36
2023-04-13T13:09:51.745Z,13.32
2023-04-13T13:12:23.990Z,12.96
2023-04-13T13:14:53.539Z,12.79
2023-04-13T13:17:23.079Z,12.85
2023-04-13T13:19:52.832Z,12.94
2023-04-13T13:22:22.469Z,13.11
2023-04-13T13:24:52.036Z,13.38
2023-04-13T13:29:57.493Z,13.78
2023-04-13T13:32:29.777Z,13.86
2023-04-13T13:34:59.411Z,14.21
2023-04-13T13:37:29.134Z,14.32
2023-04-13T13:39:58.693Z,13.81
2023-04-13T13:42:44.215Z,14.07
2023-04-13T13:45:20.042Z,13.74
2023-04-13T13:47:51.456Z,13.39
2023-04-13T13:50:21.838Z,13.77
2023-04-13T13:53:02.924Z,14.22
2023-04-13T13:55:33.381Z,14.70
2023-04-13T13:58:05.596Z,15.16
2023-04-13T14:00:35.181Z,15.38
2023-04-13T14:03:04.812Z,15.74
2023-04-13T14:05:34.415Z,15.83
2023-04-13T14:08:04.131Z,15.95
2023-04-13T14:10:34.429Z,15.00
2023-04-13T14:13:06.951Z,14.53
2023-04-13T14:15:36.552Z,13.94
2023-04-13T14:18:09.868Z,13.29
2023-04-13T14:20:41.513Z,12.92
2023-04-13T14:23:12.154Z,12.82
2023-04-13T14:25:41.697Z,13.12
2023-04-13T14:28:14.686Z,13.24
2023-04-13T14:30:45.103Z,13.40
2023-04-13T14:33:16.633Z,13.57
2023-04-13T14:35:46.539Z,13.81
2023-04-13T14:38:16.055Z,13.94
2023-04-13T14:40:45.642Z,13.74
2023-04-13T14:43:17.802Z,13.79
2023-04-13T14:45:47.327Z,13.51
2023-04-13T14:48:17.706Z,13.65
2023-04-13T14:50:47.511Z,13.90
2023-04-13T14:53:17.818Z,13.50
2023-04-13T14:55:47.665Z,13.11
2023-04-13T14:58:19.772Z,13.01
2023-04-13T15:00:49.861Z,13.27
2023-04-13T15:03:19.407Z,13.19
2023-04-13T15:05:50.070Z,13.09
2023-04-13T15:08:19.811Z,12.84
2023-04-13T15:10:49.320Z,12.82
2023-04-13T15:13:21.422Z,12.82
2023-04-13T15:15:52.321Z,12.96
2023-04-13T15:18:22.017Z,12.93
2023-04-13T15:20:51.607Z,13.17
2023-04-13T15:23:21.314Z,13.49
2023-04-13T15:25:50.866Z,13.48
2023-04-13T15:28:23.694Z,12.90
2023-04-13T15:30:53.801Z,12.79
2023-04-13T15:33:23.386Z,12.76
2023-04-13T15:35:54.311Z,12.95
2023-04-13T15:38:23.831Z,13.04
2023-04-13T15:40:53.347Z,13.17
2023-04-13T15:43:25.444Z,13.12
2023-04-13T15:45:54.956Z,13.23
2023-04-13T15:48:24.549Z,13.48
2023-04-13T15:51:00.235Z,13.90
2023-04-13T15:53:29.739Z,13.69
2023-04-13T15:55:59.259Z,13.24
2023-04-13T15:58:31.537Z,12.78
2023-04-13T16:01:03.748Z,12.49
2023-04-13T16:03:33.509Z,12.24
2023-04-13T16:06:03.216Z,12.30
2023-04-13T16:08:32.831Z,12.39
2023-04-13T16:11:02.878Z,12.25
2023-04-13T16:13:48.689Z,12.31
2023-04-13T16:16:19.620Z,12.34
2023-04-13T16:18:49.334Z,12.37
2023-04-13T16:21:20.225Z,12.37
2023-04-13T16:23:49.729Z,12.37
2023-04-13T16:26:20.476Z,12.39
2023-04-13T16:28:53.633Z,12.55
2023-04-13T16:31:23.332Z,12.73
2023-04-13T16:33:53.078Z,12.79
2023-04-13T16:36:23.804Z,12.75
2023-04-13T16:38:53.311Z,12.73
2023-04-13T16:41:23.659Z,12.75
2023-04-13T16:43:55.781Z,12.96
2023-04-13T16:46:25.433Z,12.92
2023-04-13T16:48:54.970Z,13.22
2023-04-13T16:51:25.426Z,13.55
2023-04-13T16:53:54.953Z,13.74
2023-04-13T16:56:24.452Z,13.72
2023-04-13T16:58:56.598Z,13.33
2023-04-13T17:01:28.357Z,12.92
2023-04-13T17:03:58.066Z,12.91
2023-04-13T17:06:27.954Z,12.95
2023-04-13T17:08:57.539Z,13.19
2023-04-13T17:11:27.213Z,13.29
2023-04-13T17:13:59.357Z,13.29
2023-04-13T17:16:29.703Z,13.39
2023-04-13T17:18:59.701Z,13.56
2023-04-13T17:21:30.379Z,13.73
2023-04-13T17:23:59.921Z,13.79
2023-04-13T17:26:29.452Z,13.84
2023-04-13T17:29:02.138Z,13.81
2023-04-13T17:31:31.816Z,13.83
2023-04-13T17:34:01.342Z,13.83
2023-04-13T17:36:31.484Z,13.78
2023-04-13T17:39:02.001Z,13.71
2023-04-13T17:41:31.745Z,13.59
2023-04-13T17:44:03.916Z,13.49
2023-04-13T17:46:33.507Z,13.41
2023-04-13T17:49:03.149Z,13.32
2023-04-13T17:51:34.261Z,13.19
2023-04-13T17:54:07.838Z,13.12
2023-04-13T17:56:37.356Z,13.05
2023-04-13T17:59:09.434Z,13.03
2023-04-13T18:01:38.996Z,12.91
2023-04-13T18:04:09.270Z,12.72
2023-04-13T18:06:39.150Z,12.67
2023-04-13T18:09:09.013Z,12.66
2023-04-13T18:11:38.570Z,12.61
2023-04-13T18:14:12.397Z,12.44
2023-04-13T18:16:42.075Z,12.39
2023-04-13T18:19:11.622Z,12.34
2023-04-13T18:21:41.298Z,12.24
2023-04-13T18:24:11.062Z,12.16
2023-04-13T18:26:41.693Z,12.16
2023-04-13T18:29:13.829Z,12.19
2023-04-13T18:31:43.428Z,12.18
2023-04-13T18:34:15.727Z,12.16
2023-04-13T18:36:45.279Z,12.16
2023-04-13T18:39:14.787Z,12.21
2023-04-13T18:41:44.338Z,12.15
2023-04-13T18:44:16.447Z,12.14
2023-04-13T18:46:46.058Z,12.03
2023-04-13T18:49:16.856Z,11.94
2023-04-13T18:51:46.478Z,11.83
2023-04-13T18:54:16.164Z,11.86
2023-04-13T18:56:45.939Z,11.76
2023-04-13T18:59:18.018Z,11.70
2023-04-13T19:01:48.754Z,11.66
2023-04-13T19:04:18.355Z,11.65
2023-04-13T19:06:47.969Z,11.71
2023-04-13T19:09:17.567Z,11.70
2023-04-13T19:11:47.913Z,11.78
2023-04-13T19:14:20.052Z,11.81
2023-04-13T19:16:52.613Z,11.76
2023-04-13T19:19:22.305Z,11.72
2023-04-13T19:21:55.288Z,11.72
2023-04-13T19:24:25.028Z,11.65
2023-04-13T19:26:56.029Z,11.54
2023-04-13T19:29:30.367Z,11.44
2023-04-13T19:32:00.421Z,11.36
2023-04-13T19:34:30.077Z,11.29
2023-04-13T19:36:59.611Z,11.21
2023-04-13T19:39:29.113Z,11.20
2023-04-13T19:41:58.658Z,11.17
2023-04-13T19:44:30.761Z,11.13
2023-04-13T19:47:00.361Z,11.13
2023-04-13T19:49:29.890Z,11.09
2023-04-13T19:51:59.410Z,11.05
2023-04-13T19:54:28.912Z,11.06
2023-04-13T19:56:58.435Z,11.08
2023-04-13T19:59:30.769Z,11.14
2023-04-13T20:02:00.419Z,11.16
2023-04-13T20:04:30.236Z,11.12
2023-04-13T20:06:59.825Z,11.07
2023-04-13T20:09:29.328Z,11.00
2023-04-13T20:11:58.873Z,10.94
2023-04-13T20:14:30.965Z,10.87
2023-04-13T20:17:00.486Z,10.77
2023-04-13T20:19:30.004Z,10.73
2023-04-13T20:22:02.394Z,10.73
2023-04-13T20:24:31.986Z,10.77
2023-04-13T20:27:01.626Z,10.87
2023-04-13T20:29:33.737Z,10.93
2023-04-13T20:32:03.249Z,10.97
2023-04-13T20:34:34.514Z,11.04
2023-04-13T20:37:04.191Z,10.98
2023-04-13T20:39:33.685Z,10.90
2023-04-13T20:42:05.138Z,10.81
2023-04-13T20:44:38.249Z,10.80
2023-04-13T20:47:07.968Z,10.71
2023-04-13T20:49:37.834Z,10.67
2023-04-13T20:52:07.531Z,10.72
2023-04-13T20:54:37.715Z,10.63
2023-04-13T20:57:07.250Z,10.22
2023-04-13T20:59:40.002Z,10.38
2023-04-13T21:02:10.663Z,10.47
2023-04-13T21:04:40.923Z,10.51
2023-04-13T21:07:11.205Z,10.48
2023-04-13T21:09:41.316Z,10.50
2023-04-13T21:12:10.913Z,10.51
2023-04-13T21:14:43.026Z,10.49
2023-04-13T21:17:14.157Z,10.49
2023-04-13T21:19:43.452Z,10.51
2023-04-13T21:22:12.987Z,10.47
2023-04-13T21:24:42.519Z,10.44
2023-04-13T21:27:12.037Z,10.41
2023-04-13T21:29:44.129Z,10.35
2023-04-13T21:32:13.752Z,10.35
2023-04-13T21:34:43.336Z,10.28
2023-04-13T21:37:12.882Z,10.26
2023-04-13T21:39:42.375Z,10.29
2023-04-13T21:42:11.902Z,10.28
2023-04-13T21:44:44.014Z,10.36
2023-04-13T21:47:13.552Z,10.43
2023-04-13T21:49:43.314Z,10.24
2023-04-13T21:52:12.822Z,10.11
2023-04-13T21:54:42.318Z,10.05
2023-04-13T21:57:12.096Z,9.93
2023-04-13T21:59:44.177Z,9.89
2023-04-13T22:02:13.782Z,9.86
2023-04-13T22:04:43.364Z,9.76
2023-04-13T22:07:12.902Z,9.70
2023-04-13T22:09:42.486Z,9.61
2023-04-13T22:12:14.355Z,9.59
2023-04-13T22:14:46.491Z,9.60
2023-04-13T22:17:16.213Z,9.62
2023-04-13T22:19:45.791Z,9.64
2023-04-13T22:22:15.312Z,9.68
2023-04-13T22:24:45.040Z,9.68
2023-04-13T22:27:14.768Z,9.73
2023-04-13T22:29:47.617Z,9.74
2023-04-13T22:32:17.637Z,9.77
2023-04-13T22:34:47.171Z,9.72
2023-04-13T22:37:17.664Z,9.76
2023-04-13T22:39:47.571Z,9.76
2023-04-13T22:42:17.111Z,9.78
2023-04-13T22:44:49.206Z,9.77
2023-04-13T22:47:18.759Z,9.56
2023-04-13T22:49:48.274Z,9.45
2023-04-13T22:52:20.464Z,9.49
2023-04-13T22:54:50.100Z,9.15
2023-04-13T22:57:19.636Z,9.15
2023-04-13T22:59:51.793Z,8.95
2023-04-13T23:02:21.450Z,9.08
2023-04-13T23:04:51.247Z,9.22
2023-04-13T23:07:20.886Z,9.31
2023-04-13T23:09:50.416Z,9.34
2023-04-13T23:12:19.951Z,9.33
2023-04-13T23:14:52.129Z,9.32
2023-04-13T23:17:21.759Z,9.24
2023-04-13T23:19:51.300Z,9.14
2023-04-13T23:22:20.966Z,9.15
2023-04-13T23:24:50.699Z,9.10
2023-04-13T23:27:21.030Z,9.10
2023-04-13T23:29:54.249Z,9.10
2023-04-13T23:32:24.320Z,9.11
2023-04-13T23:34:54.636Z,9.01
2023-04-13T23:37:24.145Z,8.97
2023-04-13T23:39:53.690Z,8.97
2023-04-13T23:42:23.216Z,8.90
2023-04-13T23:44:55.455Z,8.88
2023-04-13T23:47:24.966Z,8.87
2023-04-13T23:49:55.858Z,8.58
2023-04-13T23:52:25.487Z,8.62
2023-04-13T23:54:54.992Z,8.78
2023-04-13T23:57:24.481Z,8.69
